Thornton, Kentucky
Current Conditions -  °F | °C
As of 2:55 PM on Tuesday 21 Oct 2014 (Local Time) from KLNP Reporting Station
Overcast Overcast  
Wind Chill: 52°   Ceiling: 3800
Heat Index: 52°   Visibility: 10mi
Dew Point: 37°   Wind: 15mph
Humidity: 58%   Direction: 280°W
Pressure: 30"   Gusts: 23mph
Location:  37.17°N, 82.78°W
Report Text: KLNP 211855Z AUTO 28013G20KT 10SM SCT030 BKN038 OVC047 11/03 A3000 RMK AO2
Loading
Personal Weather Stations






























Interactive Weather Map
Tropical Storm Tracking
New forecast layout! Learn more

10-Day Weather Forecast

Advertisements
Track Severe Weather on mobile